TKY433 ENGM-LJLJ
Flight info
| Callsign | TKY433 |
|---|---|
| Flight time | 2h 6m |
| Altitude | 31000 |
| Route | OKSAT L996 GETPA/N0452F330 L996 LATKU/N0453F350 L996 KELIN DCT SALLO DCT MAREM DCT BUDEX DCT RADLY |
| Aircraft | B738/M-SDE2E3FGHIRWXY/LB1 |
Departure
| Time | 2026-04-18 06:55 |
|---|---|
| Airport | Oslo-Gardermoen International Airport (ENGM) |
Arrival
| Time | 2026-04-18 09:01 |
|---|---|
| Airport | Ljubljana Jože Pučnik Airport (LJLJ) |
| Time | Latitude | Longitude | Altitude | Speed | Heading |
|---|---|---|---|---|---|
| 2026-04-18 06:23 | 60.19135 | 11.10627 | 680 ft | 0 kts | 195° |
| 2026-04-18 06:43 | 60.19138 | 11.10629 | 680 ft | 2 kts | 194° |
| 2026-04-18 06:43 | 60.19155 | 11.10635 | 680 ft | 2 kts | 189° |
| 2026-04-18 06:43 | 60.19171 | 11.10639 | 680 ft | 2 kts | 176° |
| 2026-04-18 06:43 | 60.19187 | 11.10632 | 681 ft | 2 kts | 147° |
| 2026-04-18 06:44 | 60.19198 | 11.10607 | 679 ft | 2 kts | 112° |
| 2026-04-18 06:44 | 60.19201 | 11.10592 | 677 ft | 0 kts | 107° |
| 2026-04-18 06:48 | 60.19199 | 11.10603 | 677 ft | 3 kts | 107° |
| 2026-04-18 06:48 | 60.19186 | 11.10685 | 679 ft | 10 kts | 105° |
| 2026-04-18 06:48 | 60.19164 | 11.10854 | 681 ft | 14 kts | 106° |
| 2026-04-18 06:49 | 60.19139 | 11.11019 | 681 ft | 10 kts | 114° |
| 2026-04-18 06:49 | 60.19085 | 11.11079 | 684 ft | 9 kts | 184° |
| 2026-04-18 06:49 | 60.19021 | 11.11051 | 684 ft | 10 kts | 195° |
| 2026-04-18 06:49 | 60.18942 | 11.11009 | 684 ft | 14 kts | 195° |
| 2026-04-18 06:50 | 60.18836 | 11.10948 | 683 ft | 18 kts | 196° |
| 2026-04-18 06:50 | 60.18709 | 11.10873 | 683 ft | 20 kts | 196° |
| 2026-04-18 06:50 | 60.18577 | 11.10795 | 679 ft | 19 kts | 195° |
| 2026-04-18 06:50 | 60.18451 | 11.10723 | 679 ft | 19 kts | 196° |
| 2026-04-18 06:51 | 60.18329 | 11.10653 | 679 ft | 18 kts | 196° |
| 2026-04-18 06:51 | 60.18212 | 11.10585 | 677 ft | 18 kts | 195° |
| 2026-04-18 06:51 | 60.18093 | 11.10516 | 679 ft | 17 kts | 196° |
| 2026-04-18 06:51 | 60.17979 | 11.10450 | 679 ft | 17 kts | 195° |
| 2026-04-18 06:52 | 60.17872 | 11.10390 | 679 ft | 9 kts | 196° |
| 2026-04-18 06:52 | 60.17811 | 11.10355 | 679 ft | 9 kts | 196° |
| 2026-04-18 06:52 | 60.17752 | 11.10363 | 678 ft | 9 kts | 140° |
| 2026-04-18 06:52 | 60.17726 | 11.10475 | 680 ft | 9 kts | 109° |
| 2026-04-18 06:53 | 60.17705 | 11.10614 | 677 ft | 12 kts | 105° |
| 2026-04-18 06:53 | 60.17677 | 11.10762 | 676 ft | 9 kts | 117° |
| 2026-04-18 06:53 | 60.17686 | 11.10836 | 679 ft | 4 kts | 26° |
| 2026-04-18 06:53 | 60.17712 | 11.10856 | 676 ft | 4 kts | 19° |
| 2026-04-18 06:54 | 60.17758 | 11.10885 | 678 ft | 18 kts | 17° |
| 2026-04-18 06:54 | 60.18114 | 11.11088 | 683 ft | 87 kts | 16° |
| 2026-04-18 06:54 | 60.18903 | 11.11544 | 680 ft | 147 kts | 16° |
| 2026-04-18 06:54 | 60.20038 | 11.12211 | 814 ft | 186 kts | 17° |
| 2026-04-18 06:55 | 60.21271 | 11.13029 | 1628 ft | 189 kts | 22° |
| 2026-04-18 06:55 | 60.22371 | 11.14445 | 2431 ft | 187 kts | 57° |
| 2026-04-18 06:55 | 60.22722 | 11.16992 | 2919 ft | 201 kts | 100° |
| 2026-04-18 06:55 | 60.22498 | 11.19902 | 3143 ft | 224 kts | 98° |
| 2026-04-18 06:56 | 60.22444 | 11.23145 | 3595 ft | 237 kts | 92° |
| 2026-04-18 06:56 | 60.22519 | 11.26630 | 3932 ft | 257 kts | 89° |
| 2026-04-18 06:56 | 60.22667 | 11.30277 | 4627 ft | 265 kts | 88° |
| 2026-04-18 06:56 | 60.22603 | 11.33924 | 5500 ft | 260 kts | 112° |
| 2026-04-18 06:57 | 60.21622 | 11.36859 | 6334 ft | 255 kts | 143° |
| 2026-04-18 06:57 | 60.18343 | 11.39369 | 7858 ft | 260 kts | 170° |
| 2026-04-18 06:57 | 60.16551 | 11.40013 | 8619 ft | 264 kts | 171° |
| 2026-04-18 06:58 | 60.14732 | 11.40630 | 9386 ft | 267 kts | 172° |
| 2026-04-18 06:58 | 60.12879 | 11.41257 | 10169 ft | 271 kts | 172° |
| 2026-04-18 06:58 | 60.10987 | 11.41903 | 10631 ft | 285 kts | 172° |
| 2026-04-18 06:58 | 60.08947 | 11.42606 | 10806 ft | 309 kts | 172° |
| 2026-04-18 06:59 | 60.06745 | 11.43372 | 10973 ft | 331 kts | 171° |
| 2026-04-18 06:59 | 60.04415 | 11.44191 | 11324 ft | 346 kts | 171° |
| 2026-04-18 06:59 | 60.02023 | 11.45039 | 11906 ft | 353 kts | 171° |
| 2026-04-18 06:59 | 59.99581 | 11.45909 | 12571 ft | 357 kts | 171° |
| 2026-04-18 07:00 | 59.97124 | 11.46785 | 13209 ft | 362 kts | 171° |
| 2026-04-18 07:00 | 59.94615 | 11.47680 | 13836 ft | 368 kts | 171° |
| 2026-04-18 07:00 | 59.92111 | 11.48572 | 14403 ft | 373 kts | 171° |
| 2026-04-18 07:00 | 59.89550 | 11.49484 | 15051 ft | 375 kts | 171° |
| 2026-04-18 07:01 | 59.86967 | 11.50403 | 15694 ft | 377 kts | 171° |
| 2026-04-18 07:01 | 59.84381 | 11.51321 | 16307 ft | 380 kts | 171° |
| 2026-04-18 07:01 | 59.81762 | 11.52248 | 16905 ft | 384 kts | 172° |
| 2026-04-18 07:01 | 59.79126 | 11.53180 | 17500 ft | 387 kts | 172° |
| 2026-04-18 07:02 | 59.76454 | 11.54123 | 18088 ft | 390 kts | 172° |
| 2026-04-18 07:02 | 59.73777 | 11.55067 | 18653 ft | 393 kts | 172° |
| 2026-04-18 07:02 | 59.71068 | 11.56020 | 19166 ft | 396 kts | 172° |
| 2026-04-18 07:02 | 59.68338 | 11.56978 | 19699 ft | 398 kts | 172° |
| 2026-04-18 07:03 | 59.66527 | 11.57614 | 20047 ft | 400 kts | 172° |
| 2026-04-18 07:03 | 59.63789 | 11.58572 | 20552 ft | 402 kts | 172° |
| 2026-04-18 07:03 | 59.61026 | 11.59539 | 21064 ft | 405 kts | 172° |
| 2026-04-18 07:03 | 59.58241 | 11.60511 | 21537 ft | 407 kts | 172° |
| 2026-04-18 07:04 | 59.55429 | 11.61491 | 22012 ft | 410 kts | 172° |
| 2026-04-18 07:04 | 59.52610 | 11.62472 | 22480 ft | 413 kts | 172° |
| 2026-04-18 07:04 | 59.49778 | 11.63455 | 22948 ft | 415 kts | 172° |
| 2026-04-18 07:04 | 59.46927 | 11.64444 | 23386 ft | 417 kts | 172° |
| 2026-04-18 07:05 | 59.44052 | 11.65439 | 23827 ft | 420 kts | 172° |
| 2026-04-18 07:05 | 59.41162 | 11.66438 | 24177 ft | 423 kts | 172° |
| 2026-04-18 07:05 | 59.38257 | 11.67439 | 24556 ft | 425 kts | 173° |
| 2026-04-18 07:05 | 59.35335 | 11.68446 | 24908 ft | 427 kts | 173° |
| 2026-04-18 07:06 | 59.32405 | 11.69453 | 25254 ft | 429 kts | 173° |
| 2026-04-18 07:06 | 59.29450 | 11.70467 | 25589 ft | 431 kts | 173° |
| 2026-04-18 07:06 | 59.26487 | 11.71482 | 25936 ft | 433 kts | 173° |
| 2026-04-18 07:06 | 59.23511 | 11.72499 | 26271 ft | 436 kts | 173° |
| 2026-04-18 07:07 | 59.20519 | 11.73520 | 26603 ft | 438 kts | 173° |
| 2026-04-18 07:07 | 59.17541 | 11.74535 | 26916 ft | 440 kts | 173° |
| 2026-04-18 07:07 | 59.14485 | 11.75574 | 27242 ft | 442 kts | 174° |
| 2026-04-18 07:07 | 59.11452 | 11.76604 | 27554 ft | 444 kts | 174° |
| 2026-04-18 07:08 | 59.08436 | 11.77626 | 27832 ft | 446 kts | 174° |
| 2026-04-18 07:08 | 59.05365 | 11.78665 | 28108 ft | 448 kts | 174° |
| 2026-04-18 07:08 | 59.02292 | 11.79702 | 28389 ft | 450 kts | 174° |
| 2026-04-18 07:08 | 58.99217 | 11.80739 | 28675 ft | 451 kts | 174° |
| 2026-04-18 07:09 | 58.96095 | 11.81789 | 28939 ft | 453 kts | 174° |
| 2026-04-18 07:09 | 58.92978 | 11.82836 | 29184 ft | 455 kts | 174° |
| 2026-04-18 07:09 | 58.89855 | 11.83883 | 29525 ft | 455 kts | 174° |
| 2026-04-18 07:09 | 58.86741 | 11.84928 | 29958 ft | 453 kts | 174° |
| 2026-04-18 07:10 | 58.83647 | 11.85964 | 30392 ft | 451 kts | 174° |
| 2026-04-18 07:10 | 58.80555 | 11.86996 | 30691 ft | 450 kts | 175° |
| 2026-04-18 07:10 | 58.77466 | 11.88024 | 30971 ft | 450 kts | 175° |
| 2026-04-18 07:10 | 58.74425 | 11.89033 | 31239 ft | 450 kts | 175° |
| 2026-04-18 07:11 | 58.68154 | 11.91106 | 31226 ft | 454 kts | 175° |
| 2026-04-18 07:11 | 58.61970 | 11.93152 | 31222 ft | 448 kts | 175° |
| 2026-04-18 07:12 | 58.55844 | 11.95168 | 31233 ft | 448 kts | 175° |
| 2026-04-18 07:12 | 58.49725 | 11.97171 | 31231 ft | 448 kts | 175° |
| 2026-04-18 07:13 | 58.43562 | 11.99183 | 31234 ft | 449 kts | 175° |
| 2026-04-18 07:13 | 58.37509 | 12.01154 | 31237 ft | 450 kts | 175° |
| 2026-04-18 07:14 | 58.31254 | 12.03183 | 31236 ft | 451 kts | 175° |
| 2026-04-18 07:14 | 58.25133 | 12.05162 | 31235 ft | 451 kts | 175° |
| 2026-04-18 07:15 | 58.18956 | 12.07580 | 31243 ft | 454 kts | 172° |
| 2026-04-18 07:15 | 58.12796 | 12.10348 | 31236 ft | 455 kts | 171° |
| 2026-04-18 07:16 | 58.06665 | 12.13096 | 31297 ft | 458 kts | 171° |
| 2026-04-18 07:16 | 58.03565 | 12.14461 | 31573 ft | 457 kts | 172° |
| 2026-04-18 07:16 | 58.00497 | 12.15801 | 31932 ft | 455 kts | 172° |
| 2026-04-18 07:17 | 57.97410 | 12.17142 | 32309 ft | 452 kts | 172° |
| 2026-04-18 07:17 | 57.94348 | 12.18465 | 32657 ft | 450 kts | 172° |
| 2026-04-18 07:17 | 57.91308 | 12.19773 | 32938 ft | 449 kts | 172° |
| 2026-04-18 07:17 | 57.88260 | 12.21081 | 33180 ft | 450 kts | 173° |
| 2026-04-18 07:18 | 57.85200 | 12.22391 | 33437 ft | 449 kts | 173° |
| 2026-04-18 07:18 | 57.82147 | 12.23697 | 33730 ft | 448 kts | 173° |
| 2026-04-18 07:18 | 57.79121 | 12.24991 | 34011 ft | 447 kts | 173° |
| 2026-04-18 07:18 | 57.76126 | 12.26269 | 34240 ft | 447 kts | 173° |
| 2026-04-18 07:19 | 57.73049 | 12.27579 | 34422 ft | 448 kts | 173° |
| 2026-04-18 07:19 | 57.70007 | 12.28872 | 34586 ft | 449 kts | 173° |
| 2026-04-18 07:19 | 57.66985 | 12.30155 | 34769 ft | 449 kts | 173° |
| 2026-04-18 07:19 | 57.63935 | 12.31448 | 34963 ft | 449 kts | 173° |
| 2026-04-18 07:20 | 57.60893 | 12.32736 | 35147 ft | 449 kts | 172° |
| 2026-04-18 07:20 | 57.57830 | 12.34029 | 35202 ft | 452 kts | 172° |
| 2026-04-18 07:20 | 57.51679 | 12.36619 | 35211 ft | 452 kts | 172° |
| 2026-04-18 07:21 | 57.45550 | 12.39198 | 35218 ft | 449 kts | 172° |
| 2026-04-18 07:21 | 57.39530 | 12.41719 | 35224 ft | 447 kts | 172° |
| 2026-04-18 07:22 | 57.33422 | 12.44265 | 35231 ft | 446 kts | 172° |
| 2026-04-18 07:22 | 57.27396 | 12.46768 | 35240 ft | 446 kts | 172° |
| 2026-04-18 07:23 | 57.21344 | 12.49273 | 35242 ft | 447 kts | 172° |
| 2026-04-18 07:23 | 57.15236 | 12.51793 | 35238 ft | 450 kts | 172° |
| 2026-04-18 07:24 | 57.09179 | 12.54285 | 35243 ft | 452 kts | 172° |
| 2026-04-18 07:24 | 57.02965 | 12.56833 | 35242 ft | 454 kts | 172° |
| 2026-04-18 07:25 | 56.96803 | 12.59351 | 35240 ft | 456 kts | 172° |
| 2026-04-18 07:25 | 56.90643 | 12.61861 | 35237 ft | 457 kts | 172° |
| 2026-04-18 07:26 | 56.84405 | 12.64393 | 35241 ft | 458 kts | 172° |
| 2026-04-18 07:26 | 56.78186 | 12.66910 | 35241 ft | 458 kts | 172° |
| 2026-04-18 07:27 | 56.71952 | 12.69424 | 35229 ft | 458 kts | 172° |
| 2026-04-18 07:27 | 56.65742 | 12.71920 | 35237 ft | 457 kts | 172° |
| 2026-04-18 07:28 | 56.59530 | 12.74407 | 35231 ft | 456 kts | 172° |
| 2026-04-18 07:28 | 56.53334 | 12.76880 | 35237 ft | 456 kts | 172° |
| 2026-04-18 07:29 | 56.47184 | 12.79326 | 35242 ft | 455 kts | 172° |
| 2026-04-18 07:29 | 56.40995 | 12.81779 | 35238 ft | 455 kts | 172° |
| 2026-04-18 07:30 | 56.34803 | 12.84225 | 35243 ft | 455 kts | 172° |
| 2026-04-18 07:30 | 56.28614 | 12.86662 | 35238 ft | 456 kts | 172° |
| 2026-04-18 07:31 | 56.22490 | 12.89065 | 35239 ft | 457 kts | 172° |
| 2026-04-18 07:31 | 56.16255 | 12.91504 | 35242 ft | 457 kts | 172° |
| 2026-04-18 07:32 | 56.10058 | 12.93920 | 35266 ft | 458 kts | 172° |
| 2026-04-18 07:32 | 56.03816 | 12.96346 | 35267 ft | 459 kts | 172° |
| 2026-04-18 07:33 | 55.97559 | 12.98770 | 35267 ft | 460 kts | 172° |
| 2026-04-18 07:33 | 55.91295 | 13.01188 | 35265 ft | 461 kts | 172° |
| 2026-04-18 07:34 | 55.85024 | 13.03601 | 35264 ft | 461 kts | 172° |
| 2026-04-18 07:34 | 55.78784 | 13.05995 | 35257 ft | 462 kts | 172° |
| 2026-04-18 07:35 | 55.72492 | 13.08400 | 35253 ft | 462 kts | 172° |
| 2026-04-18 07:35 | 55.66198 | 13.10798 | 35247 ft | 462 kts | 172° |
| 2026-04-18 07:36 | 55.59904 | 13.13189 | 35240 ft | 462 kts | 172° |
| 2026-04-18 07:36 | 55.53610 | 13.15571 | 35244 ft | 463 kts | 172° |
| 2026-04-18 07:37 | 55.47302 | 13.17951 | 35240 ft | 463 kts | 172° |
| 2026-04-18 07:37 | 55.41042 | 13.20305 | 35242 ft | 463 kts | 172° |
| 2026-04-18 07:38 | 55.34739 | 13.22667 | 35248 ft | 463 kts | 172° |
| 2026-04-18 07:38 | 55.28430 | 13.25025 | 35251 ft | 463 kts | 172° |
| 2026-04-18 07:39 | 55.22130 | 13.27371 | 35254 ft | 463 kts | 172° |
| 2026-04-18 07:39 | 55.15825 | 13.29711 | 35253 ft | 464 kts | 172° |
| 2026-04-18 07:40 | 55.09492 | 13.32055 | 35259 ft | 464 kts | 172° |
| 2026-04-18 07:40 | 55.03176 | 13.34385 | 35254 ft | 464 kts | 172° |
| 2026-04-18 07:41 | 54.96921 | 13.36685 | 35252 ft | 465 kts | 172° |
| 2026-04-18 07:41 | 54.90550 | 13.38794 | 35243 ft | 461 kts | 180° |
| 2026-04-18 07:42 | 54.84173 | 13.39271 | 35246 ft | 459 kts | 183° |
| 2026-04-18 07:42 | 54.77774 | 13.39562 | 35252 ft | 459 kts | 183° |
| 2026-04-18 07:43 | 54.71382 | 13.39899 | 35252 ft | 460 kts | 182° |
| 2026-04-18 07:43 | 54.64959 | 13.40286 | 35249 ft | 461 kts | 182° |
| 2026-04-18 07:44 | 54.58591 | 13.40687 | 35246 ft | 461 kts | 182° |
| 2026-04-18 07:44 | 54.52157 | 13.41094 | 35249 ft | 461 kts | 182° |
| 2026-04-18 07:45 | 54.45737 | 13.41496 | 35249 ft | 462 kts | 182° |
| 2026-04-18 07:45 | 54.39354 | 13.41894 | 35239 ft | 462 kts | 182° |
| 2026-04-18 07:46 | 54.32910 | 13.42294 | 35248 ft | 462 kts | 182° |
| 2026-04-18 07:46 | 54.26475 | 13.42692 | 35240 ft | 462 kts | 182° |
| 2026-04-18 07:47 | 54.20041 | 13.43089 | 35242 ft | 462 kts | 182° |
| 2026-04-18 07:47 | 54.13610 | 13.43484 | 35241 ft | 462 kts | 182° |
| 2026-04-18 07:48 | 54.07230 | 13.43875 | 35247 ft | 462 kts | 182° |
| 2026-04-18 07:48 | 54.00752 | 13.44271 | 35229 ft | 462 kts | 182° |
| 2026-04-18 07:49 | 53.94326 | 13.44662 | 35245 ft | 462 kts | 182° |
| 2026-04-18 07:49 | 53.87885 | 13.45053 | 35239 ft | 462 kts | 182° |
| 2026-04-18 07:50 | 53.82552 | 13.45376 | 35233 ft | 462 kts | 182° |
| 2026-04-18 07:50 | 53.75076 | 13.45827 | 35241 ft | 462 kts | 182° |
| 2026-04-18 07:51 | 53.68655 | 13.46214 | 35239 ft | 462 kts | 182° |
| 2026-04-18 07:51 | 53.63275 | 13.46536 | 35239 ft | 462 kts | 182° |
| 2026-04-18 07:52 | 53.56865 | 13.46920 | 35241 ft | 462 kts | 182° |
| 2026-04-18 07:52 | 53.50434 | 13.47303 | 35235 ft | 463 kts | 182° |
| 2026-04-18 07:53 | 53.43987 | 13.47687 | 35240 ft | 463 kts | 182° |
| 2026-04-18 07:53 | 53.37541 | 13.48069 | 35239 ft | 463 kts | 181° |
| 2026-04-18 07:54 | 53.31096 | 13.48449 | 35234 ft | 463 kts | 181° |
| 2026-04-18 07:54 | 53.24645 | 13.48829 | 35233 ft | 464 kts | 181° |
| 2026-04-18 07:55 | 53.18232 | 13.49206 | 35235 ft | 464 kts | 181° |
| 2026-04-18 07:55 | 53.11805 | 13.49583 | 35239 ft | 464 kts | 181° |
| 2026-04-18 07:56 | 53.05326 | 13.49961 | 35233 ft | 464 kts | 181° |
| 2026-04-18 07:56 | 52.98873 | 13.50337 | 35234 ft | 464 kts | 181° |
| 2026-04-18 07:57 | 52.92423 | 13.50711 | 35232 ft | 464 kts | 181° |
| 2026-04-18 07:57 | 52.85987 | 13.51084 | 35236 ft | 464 kts | 181° |
| 2026-04-18 07:58 | 52.76297 | 13.51642 | 35235 ft | 465 kts | 181° |
| 2026-04-18 07:59 | 52.69841 | 13.52013 | 35231 ft | 465 kts | 181° |
| 2026-04-18 07:59 | 52.63357 | 13.52385 | 35230 ft | 465 kts | 181° |
| 2026-04-18 08:00 | 52.56886 | 13.52755 | 35217 ft | 465 kts | 181° |
| 2026-04-18 08:00 | 52.50404 | 13.53124 | 35216 ft | 465 kts | 181° |
| 2026-04-18 08:01 | 52.43917 | 13.53492 | 35212 ft | 465 kts | 181° |
| 2026-04-18 08:01 | 52.37437 | 13.53859 | 35212 ft | 465 kts | 181° |
| 2026-04-18 08:02 | 52.31001 | 13.54222 | 35206 ft | 465 kts | 181° |
| 2026-04-18 08:02 | 52.24532 | 13.54586 | 35213 ft | 465 kts | 181° |
| 2026-04-18 08:03 | 52.18075 | 13.54948 | 35223 ft | 465 kts | 181° |
| 2026-04-18 08:03 | 52.11595 | 13.55311 | 35217 ft | 465 kts | 181° |
| 2026-04-18 08:04 | 52.05125 | 13.55672 | 35219 ft | 465 kts | 181° |
| 2026-04-18 08:04 | 51.98687 | 13.56030 | 35221 ft | 464 kts | 181° |
| 2026-04-18 08:05 | 51.92206 | 13.56390 | 35217 ft | 464 kts | 181° |
| 2026-04-18 08:05 | 51.85800 | 13.56744 | 35214 ft | 464 kts | 181° |
| 2026-04-18 08:06 | 51.79343 | 13.57100 | 35214 ft | 464 kts | 181° |
| 2026-04-18 08:06 | 51.72875 | 13.57456 | 35210 ft | 464 kts | 181° |
| 2026-04-18 08:07 | 51.66419 | 13.57809 | 35217 ft | 463 kts | 181° |
| 2026-04-18 08:07 | 51.59964 | 13.58162 | 35215 ft | 464 kts | 181° |
| 2026-04-18 08:08 | 51.53582 | 13.58510 | 35206 ft | 464 kts | 181° |
| 2026-04-18 08:08 | 51.47065 | 13.58865 | 35208 ft | 464 kts | 181° |
| 2026-04-18 08:09 | 51.40661 | 13.59212 | 35210 ft | 464 kts | 181° |
| 2026-04-18 08:09 | 51.34234 | 13.59559 | 35209 ft | 464 kts | 181° |
| 2026-04-18 08:10 | 51.27748 | 13.59909 | 35202 ft | 464 kts | 181° |
| 2026-04-18 08:10 | 51.21302 | 13.60255 | 35210 ft | 464 kts | 181° |
| 2026-04-18 08:11 | 51.14833 | 13.60602 | 35207 ft | 464 kts | 181° |
| 2026-04-18 08:11 | 51.08359 | 13.60948 | 35212 ft | 464 kts | 181° |
| 2026-04-18 08:12 | 51.01943 | 13.61290 | 35211 ft | 464 kts | 181° |
| 2026-04-18 08:12 | 50.95477 | 13.61634 | 35206 ft | 465 kts | 181° |
| 2026-04-18 08:13 | 50.89014 | 13.61977 | 35201 ft | 465 kts | 181° |
| 2026-04-18 08:13 | 50.82545 | 13.62318 | 35202 ft | 465 kts | 181° |
| 2026-04-18 08:14 | 50.76093 | 13.62659 | 35202 ft | 465 kts | 181° |
| 2026-04-18 08:14 | 50.69624 | 13.63501 | 35198 ft | 470 kts | 170° |
| 2026-04-18 08:15 | 50.63303 | 13.66104 | 35201 ft | 471 kts | 167° |
| 2026-04-18 08:15 | 50.57005 | 13.68833 | 35207 ft | 470 kts | 167° |
| 2026-04-18 08:16 | 50.50640 | 13.71521 | 35211 ft | 470 kts | 168° |
| 2026-04-18 08:16 | 50.44309 | 13.74136 | 35218 ft | 471 kts | 168° |
| 2026-04-18 08:17 | 50.37992 | 13.76723 | 35218 ft | 471 kts | 168° |
| 2026-04-18 08:17 | 50.31647 | 13.79314 | 35214 ft | 472 kts | 168° |
| 2026-04-18 08:18 | 50.25283 | 13.81909 | 35212 ft | 472 kts | 168° |
| 2026-04-18 08:18 | 50.18922 | 13.84495 | 35210 ft | 472 kts | 168° |
| 2026-04-18 08:19 | 50.12567 | 13.87073 | 35210 ft | 473 kts | 168° |
| 2026-04-18 08:19 | 50.06189 | 13.89653 | 35211 ft | 473 kts | 168° |
| 2026-04-18 08:20 | 49.99811 | 13.92226 | 35212 ft | 474 kts | 168° |
| 2026-04-18 08:20 | 49.93465 | 13.94778 | 35208 ft | 474 kts | 168° |
| 2026-04-18 08:21 | 49.87099 | 13.97332 | 35211 ft | 474 kts | 167° |
| 2026-04-18 08:21 | 49.80632 | 13.99919 | 35207 ft | 475 kts | 167° |
| 2026-04-18 08:22 | 49.74278 | 14.02454 | 35212 ft | 475 kts | 167° |
| 2026-04-18 08:22 | 49.67853 | 14.05011 | 35203 ft | 476 kts | 167° |
| 2026-04-18 08:23 | 49.61428 | 14.07561 | 35209 ft | 477 kts | 167° |
| 2026-04-18 08:23 | 49.54995 | 14.10106 | 35209 ft | 477 kts | 167° |
| 2026-04-18 08:24 | 49.48552 | 14.12649 | 35209 ft | 478 kts | 167° |
| 2026-04-18 08:24 | 49.42106 | 14.15186 | 35211 ft | 478 kts | 167° |
| 2026-04-18 08:25 | 49.35648 | 14.17720 | 35220 ft | 479 kts | 167° |
| 2026-04-18 08:25 | 49.29245 | 14.20227 | 35207 ft | 480 kts | 167° |
| 2026-04-18 08:26 | 49.22752 | 14.22762 | 35215 ft | 480 kts | 167° |
| 2026-04-18 08:26 | 49.16274 | 14.25285 | 35211 ft | 480 kts | 167° |
| 2026-04-18 08:27 | 49.09788 | 14.27804 | 35212 ft | 480 kts | 167° |
| 2026-04-18 08:27 | 49.03313 | 14.30312 | 35216 ft | 480 kts | 167° |
| 2026-04-18 08:28 | 48.96845 | 14.32811 | 35212 ft | 480 kts | 167° |
| 2026-04-18 08:28 | 48.90347 | 14.35341 | 35214 ft | 481 kts | 167° |
| 2026-04-18 08:29 | 48.83864 | 14.37914 | 35211 ft | 481 kts | 167° |
| 2026-04-18 08:29 | 48.77431 | 14.40466 | 35212 ft | 481 kts | 167° |
| 2026-04-18 08:30 | 48.70958 | 14.43021 | 35206 ft | 481 kts | 167° |
| 2026-04-18 08:30 | 48.64461 | 14.45573 | 35211 ft | 481 kts | 167° |
| 2026-04-18 08:31 | 48.57972 | 14.48116 | 35205 ft | 482 kts | 166° |
| 2026-04-18 08:31 | 48.51508 | 14.50641 | 35209 ft | 482 kts | 166° |
| 2026-04-18 08:32 | 48.45017 | 14.53171 | 35206 ft | 482 kts | 166° |
| 2026-04-18 08:32 | 48.38472 | 14.55715 | 35214 ft | 482 kts | 166° |
| 2026-04-18 08:33 | 48.32040 | 14.58209 | 35213 ft | 483 kts | 166° |
| 2026-04-18 08:33 | 48.25515 | 14.60732 | 35214 ft | 483 kts | 166° |
| 2026-04-18 08:34 | 48.18980 | 14.63252 | 35214 ft | 484 kts | 166° |
| 2026-04-18 08:34 | 48.12463 | 14.65759 | 35221 ft | 484 kts | 166° |
| 2026-04-18 08:35 | 48.05922 | 14.68269 | 35216 ft | 484 kts | 166° |
| 2026-04-18 08:35 | 47.99456 | 14.70743 | 35220 ft | 485 kts | 166° |
| 2026-04-18 08:35 | 47.96121 | 14.72016 | 34989 ft | 488 kts | 166° |
| 2026-04-18 08:36 | 47.92826 | 14.73273 | 34750 ft | 487 kts | 166° |
| 2026-04-18 08:36 | 47.89553 | 14.74520 | 34510 ft | 486 kts | 166° |
| 2026-04-18 08:36 | 47.86316 | 14.75751 | 34280 ft | 487 kts | 166° |
| 2026-04-18 08:36 | 47.83086 | 14.76978 | 34022 ft | 489 kts | 166° |
| 2026-04-18 08:37 | 47.79786 | 14.78230 | 33747 ft | 489 kts | 166° |
| 2026-04-18 08:37 | 47.76495 | 14.79476 | 33489 ft | 490 kts | 166° |
| 2026-04-18 08:37 | 47.73159 | 14.80739 | 33217 ft | 491 kts | 166° |
| 2026-04-18 08:37 | 47.69845 | 14.81992 | 32984 ft | 492 kts | 166° |
| 2026-04-18 08:38 | 47.66535 | 14.83240 | 32717 ft | 493 kts | 166° |
| 2026-04-18 08:38 | 47.64281 | 14.84090 | 32514 ft | 493 kts | 166° |
| 2026-04-18 08:38 | 47.59894 | 14.85742 | 31801 ft | 489 kts | 165° |
| 2026-04-18 08:38 | 47.57732 | 14.86555 | 31469 ft | 486 kts | 165° |
| 2026-04-18 08:39 | 47.54457 | 14.87785 | 30963 ft | 482 kts | 165° |
| 2026-04-18 08:39 | 47.51208 | 14.89004 | 30508 ft | 479 kts | 165° |
| 2026-04-18 08:39 | 47.47990 | 14.90209 | 29968 ft | 475 kts | 165° |
| 2026-04-18 08:39 | 47.44792 | 14.91406 | 29420 ft | 471 kts | 165° |
| 2026-04-18 08:40 | 47.41608 | 14.92596 | 28925 ft | 466 kts | 165° |
| 2026-04-18 08:40 | 47.38484 | 14.93763 | 28439 ft | 461 kts | 165° |
| 2026-04-18 08:40 | 47.35379 | 14.94920 | 27951 ft | 458 kts | 165° |
| 2026-04-18 08:40 | 47.32355 | 14.96046 | 27475 ft | 454 kts | 165° |
| 2026-04-18 08:41 | 47.29311 | 14.97178 | 26996 ft | 450 kts | 165° |
| 2026-04-18 08:41 | 47.26274 | 14.98306 | 26512 ft | 447 kts | 165° |
| 2026-04-18 08:41 | 47.23273 | 14.99420 | 26051 ft | 444 kts | 165° |
| 2026-04-18 08:41 | 47.20285 | 15.00527 | 25573 ft | 441 kts | 165° |
| 2026-04-18 08:42 | 47.17352 | 15.01613 | 25114 ft | 438 kts | 165° |
| 2026-04-18 08:42 | 47.14364 | 15.02718 | 24649 ft | 435 kts | 165° |
| 2026-04-18 08:42 | 47.11463 | 15.03789 | 24165 ft | 434 kts | 166° |
| 2026-04-18 08:42 | 47.08505 | 15.04881 | 23673 ft | 432 kts | 166° |
| 2026-04-18 08:43 | 47.05600 | 15.05952 | 23139 ft | 430 kts | 166° |
| 2026-04-18 08:43 | 47.02700 | 15.07019 | 22651 ft | 426 kts | 166° |
| 2026-04-18 08:43 | 46.99834 | 15.08073 | 22171 ft | 423 kts | 166° |
| 2026-04-18 08:43 | 46.96992 | 15.09117 | 21712 ft | 420 kts | 166° |
| 2026-04-18 08:44 | 46.94168 | 15.10153 | 21248 ft | 417 kts | 166° |
| 2026-04-18 08:44 | 46.91366 | 15.11180 | 20799 ft | 413 kts | 165° |
| 2026-04-18 08:44 | 46.88576 | 15.12201 | 20349 ft | 410 kts | 166° |
| 2026-04-18 08:44 | 46.85810 | 15.13212 | 19899 ft | 407 kts | 166° |
| 2026-04-18 08:45 | 46.83071 | 15.14213 | 19459 ft | 405 kts | 166° |
| 2026-04-18 08:45 | 46.80352 | 15.15206 | 19016 ft | 402 kts | 166° |
| 2026-04-18 08:45 | 46.77640 | 15.16194 | 18571 ft | 400 kts | 166° |
| 2026-04-18 08:45 | 46.74943 | 15.17177 | 18076 ft | 399 kts | 165° |
| 2026-04-18 08:46 | 46.72266 | 15.18151 | 17605 ft | 396 kts | 166° |
| 2026-04-18 08:46 | 46.69635 | 15.19108 | 17154 ft | 392 kts | 165° |
| 2026-04-18 08:46 | 46.66995 | 15.20066 | 16714 ft | 389 kts | 165° |
| 2026-04-18 08:46 | 46.64382 | 15.21014 | 16294 ft | 386 kts | 165° |
| 2026-04-18 08:47 | 46.61780 | 15.21953 | 15854 ft | 383 kts | 165° |
| 2026-04-18 08:47 | 46.59211 | 15.22877 | 15457 ft | 380 kts | 165° |
| 2026-04-18 08:47 | 46.56639 | 15.23801 | 15017 ft | 378 kts | 165° |
| 2026-04-18 08:47 | 46.54107 | 15.24710 | 14603 ft | 376 kts | 165° |
| 2026-04-18 08:48 | 46.51563 | 15.25623 | 14170 ft | 375 kts | 165° |
| 2026-04-18 08:48 | 46.49033 | 15.26531 | 13677 ft | 374 kts | 165° |
| 2026-04-18 08:48 | 46.46508 | 15.27435 | 13178 ft | 372 kts | 165° |
| 2026-04-18 08:48 | 46.44017 | 15.28328 | 12774 ft | 368 kts | 165° |
| 2026-04-18 08:49 | 46.41527 | 15.29219 | 12335 ft | 366 kts | 165° |
| 2026-04-18 08:49 | 46.39068 | 15.30098 | 11915 ft | 363 kts | 165° |
| 2026-04-18 08:49 | 46.36656 | 15.30957 | 11523 ft | 360 kts | 165° |
| 2026-04-18 08:49 | 46.34225 | 15.31822 | 11097 ft | 358 kts | 166° |
| 2026-04-18 08:50 | 46.31761 | 15.32046 | 10739 ft | 355 kts | 188° |
| 2026-04-18 08:50 | 46.29462 | 15.30944 | 10523 ft | 345 kts | 211° |
| 2026-04-18 08:50 | 46.27606 | 15.28850 | 10370 ft | 333 kts | 229° |
| 2026-04-18 08:50 | 46.26311 | 15.26166 | 10232 ft | 321 kts | 243° |
| 2026-04-18 08:51 | 46.25263 | 15.23366 | 10063 ft | 313 kts | 245° |
| 2026-04-18 08:51 | 46.24278 | 15.20611 | 9967 ft | 304 kts | 245° |
| 2026-04-18 08:51 | 46.23324 | 15.17949 | 9936 ft | 293 kts | 245° |
| 2026-04-18 08:51 | 46.22372 | 15.15317 | 9344 ft | 302 kts | 245° |
| 2026-04-18 08:52 | 46.21395 | 15.12644 | 8962 ft | 300 kts | 245° |
| 2026-04-18 08:52 | 46.20422 | 15.10008 | 8601 ft | 294 kts | 245° |
| 2026-04-18 08:52 | 46.19474 | 15.07444 | 8329 ft | 284 kts | 245° |
| 2026-04-18 08:52 | 46.18567 | 15.05000 | 8040 ft | 276 kts | 244° |
| 2026-04-18 08:53 | 46.17667 | 15.02587 | 7779 ft | 270 kts | 245° |
| 2026-04-18 08:53 | 46.16783 | 15.00209 | 7484 ft | 268 kts | 245° |
| 2026-04-18 08:53 | 46.15902 | 14.97845 | 7218 ft | 267 kts | 244° |
| 2026-04-18 08:53 | 46.15029 | 14.95502 | 6985 ft | 264 kts | 245° |
| 2026-04-18 08:54 | 46.14165 | 14.93183 | 6725 ft | 265 kts | 244° |
| 2026-04-18 08:54 | 46.13288 | 14.90837 | 6445 ft | 266 kts | 244° |
| 2026-04-18 08:54 | 46.12416 | 14.88515 | 6273 ft | 263 kts | 244° |
| 2026-04-18 08:54 | 46.11554 | 14.86210 | 6144 ft | 257 kts | 244° |
| 2026-04-18 08:55 | 46.10709 | 14.83954 | 6027 ft | 254 kts | 244° |
| 2026-04-18 08:55 | 46.09873 | 14.81728 | 5905 ft | 250 kts | 244° |
| 2026-04-18 08:55 | 46.09055 | 14.79538 | 5765 ft | 247 kts | 245° |
| 2026-04-18 08:55 | 46.08583 | 14.77189 | 5501 ft | 246 kts | 275° |
| 2026-04-18 08:56 | 46.08926 | 14.74829 | 5290 ft | 241 kts | 288° |
| 2026-04-18 08:56 | 46.09372 | 14.72515 | 5051 ft | 238 kts | 288° |
| 2026-04-18 08:56 | 46.09914 | 14.70291 | 4730 ft | 232 kts | 300° |
| 2026-04-18 08:56 | 46.10783 | 14.68392 | 4474 ft | 222 kts | 309° |
| 2026-04-18 08:57 | 46.12603 | 14.64947 | 4130 ft | 207 kts | 308° |
| 2026-04-18 08:57 | 46.13447 | 14.63291 | 3878 ft | 202 kts | 308° |
| 2026-04-18 08:57 | 46.14271 | 14.61680 | 3617 ft | 200 kts | 307° |
| 2026-04-18 08:58 | 46.15073 | 14.60092 | 3387 ft | 197 kts | 307° |
| 2026-04-18 08:58 | 46.15875 | 14.58516 | 3119 ft | 192 kts | 307° |
| 2026-04-18 08:58 | 46.16645 | 14.57002 | 2867 ft | 182 kts | 307° |
| 2026-04-18 08:58 | 46.17367 | 14.55583 | 2594 ft | 170 kts | 307° |
| 2026-04-18 08:59 | 46.18048 | 14.54245 | 2364 ft | 163 kts | 307° |
| 2026-04-18 08:59 | 46.18707 | 14.52949 | 2149 ft | 159 kts | 307° |
| 2026-04-18 08:59 | 46.19362 | 14.51662 | 1948 ft | 159 kts | 307° |
| 2026-04-18 08:59 | 46.20020 | 14.50376 | 1727 ft | 160 kts | 308° |
| 2026-04-18 09:00 | 46.20720 | 14.49131 | 1464 ft | 157 kts | 307° |
| 2026-04-18 09:00 | 46.21306 | 14.47876 | 1344 ft | 147 kts | 304° |
| 2026-04-18 09:00 | 46.21881 | 14.46721 | 1246 ft | 131 kts | 308° |
| 2026-04-18 09:00 | 46.22327 | 14.45848 | 1255 ft | 54 kts | 307° |
| 2026-04-18 09:01 | 46.22474 | 14.45567 | 1246 ft | 21 kts | 312° |
| 2026-04-18 09:01 | 46.22580 | 14.45424 | 1248 ft | 20 kts | 317° |
| 2026-04-18 09:01 | 46.22701 | 14.45350 | 1244 ft | 16 kts | 354° |
| 2026-04-18 09:01 | 46.22757 | 14.45338 | 1257 ft | 8 kts | 352° |
| 2026-04-18 09:02 | 46.22810 | 14.45340 | 1245 ft | 8 kts | 357° |
| 2026-04-18 09:02 | 46.22861 | 14.45345 | 1246 ft | 7 kts | 23° |
| 2026-04-18 09:02 | 46.22903 | 14.45385 | 1253 ft | 7 kts | 37° |
| 2026-04-18 09:02 | 46.22946 | 14.45419 | 1260 ft | 7 kts | 21° |
| 2026-04-18 09:03 | 46.22986 | 14.45456 | 1261 ft | 7 kts | 37° |
| 2026-04-18 09:03 | 46.23001 | 14.45471 | 1264 ft | 0 kts | 36° |